createdAt,value
2022-12-14T00:00:16.033Z,13.47
2022-12-14T00:02:45.064Z,18.80
2022-12-14T00:05:15.750Z,15.20
2022-12-14T00:07:44.175Z,16.23
2022-12-14T00:10:19.007Z,13.90
2022-12-14T00:12:47.378Z,17.07
2022-12-14T00:15:15.424Z,18.23
2022-12-14T00:17:43.537Z,16.00
2022-12-14T00:20:12.379Z,17.27
2022-12-14T00:22:40.418Z,18.87
2022-12-14T00:25:09.092Z,19.40
2022-12-14T00:27:43.756Z,16.57
2022-12-14T00:30:13.408Z,18.50
2022-12-14T00:32:42.240Z,19.20
2022-12-14T00:35:11.995Z,16.60
2022-12-14T00:37:40.273Z,16.67
2022-12-14T00:40:10.603Z,18.17
2022-12-14T00:43:51.254Z,19.47
2022-12-14T00:46:20.737Z,15.20
2022-12-14T00:48:48.856Z,19.23
2022-12-14T00:51:19.108Z,15.70
2022-12-14T00:53:47.367Z,16.47
2022-12-14T00:56:15.637Z,21.87
2022-12-14T00:58:44.145Z,18.43
2022-12-14T01:01:14.180Z,15.53
2022-12-14T01:03:44.057Z,18.23
2022-12-14T01:06:15.632Z,17.63
2022-12-14T01:08:43.776Z,18.03
2022-12-14T01:11:12.850Z,15.93
2022-12-14T01:13:41.904Z,15.40
2022-12-14T01:16:12.663Z,16.40
2022-12-14T01:18:44.381Z,17.10
2022-12-14T01:21:15.007Z,14.53
2022-12-14T01:23:44.053Z,18.47
2022-12-14T01:26:12.882Z,16.97
2022-12-14T01:28:41.409Z,19.93
2022-12-14T01:31:11.457Z,16.07
2022-12-14T01:33:40.041Z,21.23
2022-12-14T01:36:11.873Z,14.93
2022-12-14T01:38:39.987Z,18.63
2022-12-14T01:41:09.579Z,13.93
2022-12-14T01:43:48.904Z,20.33
2022-12-14T01:46:22.260Z,13.87
2022-12-14T01:48:52.507Z,16.43
2022-12-14T01:51:22.509Z,14.70
2022-12-14T01:53:51.754Z,16.40
2022-12-14T01:56:20.399Z,16.23
2022-12-14T01:58:48.771Z,17.57
2022-12-14T02:01:17.567Z,17.37
2022-12-14T02:03:49.812Z,15.87
2022-12-14T02:06:23.801Z,15.40
2022-12-14T02:08:54.509Z,11.77
2022-12-14T02:11:32.552Z,15.07
2022-12-14T02:14:01.074Z,19.03
2022-12-14T02:16:29.547Z,17.27
2022-12-14T02:18:57.760Z,22.63
2022-12-14T02:21:41.962Z,19.40
2022-12-14T02:24:34.315Z,16.70
2022-12-14T02:27:24.375Z,15.47
2022-12-14T02:30:07.791Z,15.47
2022-12-14T02:32:50.840Z,15.87
2022-12-14T02:35:26.852Z,17.60
2022-12-14T02:38:04.139Z,18.60
2022-12-14T02:40:39.198Z,16.00
2022-12-14T02:43:18.117Z,18.73
2022-12-14T02:45:57.200Z,19.03
2022-12-14T02:48:28.137Z,15.90
2022-12-14T02:51:04.126Z,13.20
2022-12-14T02:53:38.772Z,16.80
2022-12-14T02:56:09.832Z,19.80
2022-12-14T02:58:40.234Z,18.63
2022-12-14T03:01:15.091Z,20.37
2022-12-14T03:03:43.606Z,16.80
2022-12-14T03:06:15.691Z,18.93
2022-12-14T03:08:47.591Z,19.33
2022-12-14T03:11:20.871Z,16.97
2022-12-14T03:13:53.973Z,17.47
2022-12-14T03:16:27.652Z,16.77
2022-12-14T03:19:01.838Z,19.73
2022-12-14T03:21:34.039Z,15.43
2022-12-14T03:24:07.368Z,16.67
2022-12-14T03:26:45.610Z,20.07
2022-12-14T03:29:21.741Z,15.50
2022-12-14T03:31:55.747Z,20.97
2022-12-14T03:34:31.702Z,16.23
2022-12-14T03:37:05.686Z,17.03
2022-12-14T03:39:36.206Z,17.80
2022-12-14T03:42:12.131Z,19.33
2022-12-14T03:44:49.291Z,19.60
2022-12-14T03:47:32.617Z,17.90
2022-12-14T03:50:03.479Z,18.80
2022-12-14T03:52:37.432Z,23.33
2022-12-14T03:55:15.867Z,22.77
2022-12-14T03:57:54.443Z,19.60
2022-12-14T04:00:24.904Z,18.17
2022-12-14T04:03:03.113Z,17.40
2022-12-14T04:05:39.384Z,19.40
2022-12-14T04:08:17.141Z,17.50
2022-12-14T04:11:05.513Z,18.47
2022-12-14T04:13:56.429Z,17.30
2022-12-14T04:16:46.597Z,17.80
2022-12-14T04:19:21.034Z,18.90
2022-12-14T04:21:55.569Z,18.63
2022-12-14T04:24:48.283Z,16.00
2022-12-14T04:27:20.872Z,17.13
2022-12-14T04:29:56.304Z,18.07
2022-12-14T04:32:29.380Z,19.73
2022-12-14T04:35:03.570Z,17.63
2022-12-14T04:37:32.480Z,19.40
2022-12-14T04:40:06.432Z,23.10
2022-12-14T04:42:38.093Z,23.50
2022-12-14T04:45:11.943Z,21.60
2022-12-14T04:47:45.529Z,19.57
2022-12-14T04:50:21.869Z,20.40
2022-12-14T04:52:53.832Z,18.17
2022-12-14T04:55:28.612Z,16.67
2022-12-14T04:58:01.042Z,21.00
2022-12-14T05:00:29.955Z,21.67
2022-12-14T05:03:14.620Z,18.73
2022-12-14T05:05:54.250Z,20.57
2022-12-14T05:08:32.539Z,21.40
2022-12-14T05:11:39.607Z,20.83
2022-12-14T05:13:55.611Z,19.33
2022-12-14T05:16:25.528Z,18.03
2022-12-14T05:18:54.246Z,19.57
2022-12-14T05:21:41.530Z,18.37
2022-12-14T05:24:10.228Z,20.10
2022-12-14T05:26:38.362Z,21.43
2022-12-14T05:29:06.787Z,20.17
2022-12-14T05:31:35.170Z,20.13
2022-12-14T05:34:03.302Z,21.03
2022-12-14T05:36:32.987Z,19.47
2022-12-14T05:39:01.269Z,16.63
2022-12-14T05:41:29.364Z,19.23
2022-12-14T05:43:57.411Z,18.13
2022-12-14T05:46:25.889Z,26.60
2022-12-14T05:48:54.583Z,20.37
2022-12-14T05:54:42.328Z,18.70
2022-12-14T05:57:13.041Z,16.60
2022-12-14T05:59:41.355Z,20.13
2022-12-14T06:02:10.095Z,17.93
2022-12-14T06:04:38.159Z,19.47
2022-12-14T06:07:06.267Z,19.10
2022-12-14T06:09:34.357Z,19.53
2022-12-14T06:12:03.140Z,20.20
2022-12-14T06:14:32.988Z,20.93
2022-12-14T06:17:02.622Z,19.60
2022-12-14T06:19:34.122Z,24.10
2022-12-14T06:22:02.800Z,24.93
2022-12-14T06:24:31.185Z,21.07
2022-12-14T06:26:59.312Z,22.97
2022-12-14T06:29:27.389Z,21.10
2022-12-14T06:31:57.362Z,18.40
2022-12-14T06:34:28.698Z,16.53
2022-12-14T06:36:57.623Z,20.77
2022-12-14T06:39:26.035Z,18.17
2022-12-14T06:41:54.847Z,21.30
2022-12-14T06:44:24.234Z,23.90
2022-12-14T06:46:53.376Z,20.63
2022-12-14T06:49:27.662Z,20.63
2022-12-14T06:51:56.935Z,20.73
2022-12-14T06:54:25.698Z,20.40
2022-12-14T06:56:55.092Z,23.80
2022-12-14T07:02:17.385Z,28.07
2022-12-14T07:04:47.700Z,33.87
2022-12-14T07:07:17.070Z,29.03
2022-12-14T07:09:46.019Z,22.87
2022-12-14T07:12:29.189Z,24.03
2022-12-14T07:14:57.826Z,22.77
2022-12-14T07:17:29.597Z,27.47
2022-12-14T07:19:59.516Z,20.83
2022-12-14T07:22:27.866Z,19.67
2022-12-14T07:24:56.594Z,42.67
2022-12-14T07:27:25.643Z,44.90
2022-12-14T07:29:54.266Z,31.23
2022-12-14T07:32:22.789Z,25.63
2022-12-14T07:34:53.699Z,25.60
2022-12-14T07:37:24.237Z,29.27
2022-12-14T07:40:10.333Z,25.70
2022-12-14T07:42:38.788Z,23.47
2022-12-14T07:45:07.696Z,24.30
2022-12-14T07:47:36.412Z,25.63
2022-12-14T07:50:04.846Z,29.30
2022-12-14T07:52:37.561Z,25.57
2022-12-14T07:55:07.335Z,29.63
2022-12-14T07:57:35.990Z,28.83
2022-12-14T08:00:06.960Z,24.63
2022-12-14T08:02:35.713Z,26.83
2022-12-14T08:05:10.606Z,27.33
2022-12-14T08:07:42.306Z,28.20
2022-12-14T08:10:10.869Z,24.23
2022-12-14T08:12:39.293Z,25.33
2022-12-14T08:15:08.352Z,23.30
2022-12-14T08:17:36.411Z,32.33
2022-12-14T08:20:05.147Z,23.30
2022-12-14T08:22:33.453Z,28.77
2022-12-14T08:25:07.892Z,38.73
2022-12-14T08:27:36.261Z,31.63
2022-12-14T08:30:04.732Z,29.13
2022-12-14T08:32:34.630Z,23.73
2022-12-14T08:35:03.323Z,24.17
2022-12-14T08:37:31.432Z,26.50
2022-12-14T08:39:59.913Z,25.37
2022-12-14T08:42:30.346Z,25.27
2022-12-14T08:44:58.909Z,26.60
2022-12-14T08:47:27.477Z,24.20
2022-12-14T08:49:55.691Z,27.23
2022-12-14T08:52:24.500Z,24.27
2022-12-14T08:54:53.170Z,24.87
2022-12-14T08:57:23.458Z,25.00
2022-12-14T09:00:01.663Z,29.47
2022-12-14T09:02:31.977Z,36.23
2022-12-14T09:05:00.603Z,23.90
2022-12-14T09:07:32.207Z,30.10
2022-12-14T09:10:04.629Z,26.87
2022-12-14T09:12:36.447Z,23.67
2022-12-14T09:15:13.900Z,21.60
2022-12-14T09:17:43.879Z,21.23
2022-12-14T09:20:17.463Z,24.50
2022-12-14T09:22:47.204Z,22.40
2022-12-14T09:25:16.400Z,23.73
2022-12-14T09:27:45.009Z,27.10
2022-12-14T09:30:26.849Z,24.07
2022-12-14T09:32:56.384Z,23.50
2022-12-14T09:35:25.526Z,26.40
2022-12-14T09:37:54.672Z,24.43
2022-12-14T09:40:44.967Z,22.00
2022-12-14T09:43:30.247Z,26.40
2022-12-14T09:46:17.236Z,23.50
2022-12-14T09:48:46.993Z,25.80
2022-12-14T09:51:19.065Z,29.13
2022-12-14T09:59:20.885Z,24.13
2022-12-14T10:02:29.925Z,24.97
2022-12-14T10:05:05.453Z,26.70
2022-12-14T10:07:55.953Z,23.30
2022-12-14T10:10:29.282Z,24.00
2022-12-14T10:13:05.508Z,28.67
2022-12-14T10:15:47.453Z,24.67
2022-12-14T10:21:30.647Z,27.87
2022-12-14T10:24:03.082Z,23.77
2022-12-14T10:26:51.732Z,26.57
2022-12-14T10:29:30.245Z,23.53
2022-12-14T10:32:07.081Z,26.60
2022-12-14T10:34:53.219Z,27.27
2022-12-14T10:37:26.674Z,25.13
2022-12-14T10:40:33.466Z,24.17
2022-12-14T10:43:19.606Z,21.57
2022-12-14T10:45:55.222Z,29.67
2022-12-14T10:48:37.418Z,25.80
2022-12-14T10:51:23.243Z,26.33
2022-12-14T10:54:00.951Z,21.93
2022-12-14T10:56:32.747Z,25.17
2022-12-14T11:02:29.037Z,25.50
2022-12-14T11:04:59.322Z,22.97
2022-12-14T11:07:51.429Z,23.77
2022-12-14T11:13:34.417Z,25.40
2022-12-14T11:16:23.869Z,22.77
2022-12-14T11:19:00.730Z,23.43
2022-12-14T11:24:39.591Z,24.23
2022-12-14T11:27:13.564Z,23.53
2022-12-14T11:29:45.012Z,23.73
2022-12-14T11:35:55.059Z,23.73
2022-12-14T11:38:27.296Z,27.57
2022-12-14T11:40:57.515Z,20.93
2022-12-14T11:46:14.175Z,26.57
2022-12-14T11:48:52.787Z,26.00
2022-12-14T11:51:26.885Z,23.43
2022-12-14T11:54:06.647Z,25.10
2022-12-14T11:56:39.248Z,24.87
2022-12-14T11:59:07.582Z,23.03
2022-12-14T12:01:35.928Z,33.03
2022-12-14T12:04:04.134Z,28.07
2022-12-14T12:06:33.039Z,22.03
2022-12-14T12:09:02.894Z,22.40
2022-12-14T12:11:33.150Z,22.13
2022-12-14T12:14:06.831Z,22.20
2022-12-14T12:16:37.784Z,30.17
2022-12-14T12:19:12.421Z,27.43
2022-12-14T12:21:43.300Z,22.57
2022-12-14T12:24:31.034Z,26.30
2022-12-14T12:27:01.322Z,24.83
2022-12-14T12:29:35.298Z,25.60
2022-12-14T12:32:08.892Z,26.50
2022-12-14T12:34:46.237Z,19.50
2022-12-14T12:37:26.271Z,26.53
2022-12-14T12:40:02.581Z,24.13
2022-12-14T12:42:42.521Z,23.30
2022-12-14T12:45:22.176Z,21.47
2022-12-14T12:47:54.702Z,23.27
2022-12-14T12:50:28.061Z,21.23
2022-12-14T12:53:03.479Z,24.23
2022-12-14T12:55:38.441Z,23.43
2022-12-14T12:58:10.353Z,25.77
2022-12-14T13:00:42.379Z,23.30
2022-12-14T13:03:17.417Z,23.97
2022-12-14T13:05:47.658Z,21.27
2022-12-14T13:08:24.528Z,29.57
2022-12-14T13:13:50.041Z,21.53
2022-12-14T13:16:27.288Z,22.23
2022-12-14T13:19:25.467Z,20.97
2022-12-14T13:21:59.209Z,28.33
2022-12-14T13:24:34.454Z,26.40
2022-12-14T13:27:44.137Z,23.93
2022-12-14T13:30:31.871Z,23.43
2022-12-14T13:33:27.541Z,30.47
2022-12-14T13:36:30.151Z,25.43
2022-12-14T13:39:10.842Z,25.53
2022-12-14T13:41:52.595Z,21.27
2022-12-14T13:44:43.361Z,22.67
2022-12-14T13:47:16.059Z,26.37
2022-12-14T13:50:26.637Z,24.40
2022-12-14T13:52:46.256Z,23.13
2022-12-14T13:55:30.149Z,22.33
2022-12-14T13:58:10.015Z,28.27
2022-12-14T14:00:56.328Z,29.17
2022-12-14T14:03:52.254Z,25.13
2022-12-14T14:06:39.243Z,26.57
2022-12-14T14:10:02.360Z,25.77
2022-12-14T14:12:43.797Z,27.87
2022-12-14T14:15:38.160Z,23.83
2022-12-14T14:18:15.127Z,28.33
2022-12-14T14:20:44.545Z,29.90
2022-12-14T14:23:37.119Z,22.93
2022-12-14T14:26:29.981Z,28.73
2022-12-14T14:29:21.301Z,27.37
2022-12-14T14:31:51.910Z,26.57
2022-12-14T14:34:27.618Z,27.20
2022-12-14T14:36:56.347Z,24.07
2022-12-14T14:42:27.962Z,26.67
2022-12-14T14:44:58.342Z,24.90
2022-12-14T14:47:31.314Z,28.73
2022-12-14T14:50:01.989Z,27.27
2022-12-14T14:53:01.655Z,29.97
2022-12-14T14:56:02.894Z,26.23
2022-12-14T14:58:34.320Z,27.97
2022-12-14T15:01:18.094Z,28.20
2022-12-14T15:03:51.944Z,30.10
2022-12-14T15:06:22.894Z,30.27
2022-12-14T15:08:54.472Z,24.80
2022-12-14T15:11:35.483Z,33.43
2022-12-14T15:14:31.073Z,26.47
2022-12-14T15:17:00.802Z,40.00
2022-12-14T15:19:33.659Z,30.83
2022-12-14T15:22:06.593Z,33.30
2022-12-14T15:24:39.858Z,33.43
2022-12-14T15:27:24.391Z,37.07
2022-12-14T15:29:55.946Z,38.50
2022-12-14T15:32:25.974Z,36.60
2022-12-14T15:34:59.396Z,35.43
2022-12-14T15:37:33.274Z,32.50
2022-12-14T15:43:00.246Z,38.20
2022-12-14T15:48:49.220Z,35.83
2022-12-14T15:51:23.796Z,38.87
2022-12-14T16:02:22.329Z,34.87
2022-12-14T16:05:27.122Z,38.03
2022-12-14T16:08:12.890Z,35.03
2022-12-14T16:10:43.657Z,40.80
2022-12-14T16:19:26.684Z,46.90
2022-12-14T16:22:41.144Z,41.90
2022-12-14T16:25:54.069Z,42.83
2022-12-14T16:28:31.000Z,43.23
2022-12-14T16:31:14.745Z,46.00
2022-12-14T16:33:50.199Z,38.23
2022-12-14T16:39:52.885Z,38.83
2022-12-14T16:42:25.818Z,41.50
2022-12-14T16:44:54.868Z,43.90
2022-12-14T16:55:26.481Z,42.93
2022-12-14T16:57:58.599Z,42.47
2022-12-14T17:00:37.942Z,42.57
2022-12-14T17:03:09.954Z,44.27
2022-12-14T17:05:44.736Z,44.60
2022-12-14T17:08:13.356Z,45.33
2022-12-14T17:10:49.117Z,40.70
2022-12-14T17:13:31.035Z,42.17
2022-12-14T17:16:18.937Z,42.50
2022-12-14T17:19:05.573Z,42.43
2022-12-14T17:21:33.847Z,37.33
2022-12-14T17:24:02.366Z,47.87
2022-12-14T17:26:35.349Z,47.63
2022-12-14T17:29:05.909Z,48.80
2022-12-14T17:31:37.194Z,46.63
2022-12-14T17:34:05.513Z,52.03
2022-12-14T17:36:35.404Z,43.97
2022-12-14T17:39:09.960Z,48.30
2022-12-14T17:50:36.602Z,44.43
2022-12-14T17:56:07.678Z,41.63
2022-12-14T17:58:37.112Z,41.63
2022-12-14T18:01:08.870Z,46.93
2022-12-14T18:06:32.259Z,42.47
2022-12-14T18:09:25.231Z,45.70
2022-12-14T18:12:22.505Z,41.33
2022-12-14T18:14:52.691Z,41.93
2022-12-14T18:17:33.275Z,44.13
2022-12-14T18:20:07.788Z,47.77
2022-12-14T18:22:37.286Z,44.67
2022-12-14T18:25:23.709Z,47.73
2022-12-14T18:27:54.238Z,47.60
2022-12-14T18:30:23.941Z,52.47
2022-12-14T18:32:58.095Z,46.30
2022-12-14T18:35:32.743Z,43.30
2022-12-14T18:38:03.240Z,50.10
2022-12-14T18:40:47.789Z,43.80
2022-12-14T18:49:37.374Z,38.87
2022-12-14T18:52:10.159Z,39.57
2022-12-14T18:54:38.881Z,41.33
2022-12-14T18:57:09.395Z,36.47
2022-12-14T18:59:46.390Z,38.47
2022-12-14T19:02:16.403Z,36.80
2022-12-14T19:04:55.242Z,34.07
2022-12-14T19:07:24.247Z,40.60
2022-12-14T19:09:53.864Z,34.67
2022-12-14T19:12:23.753Z,34.73
2022-12-14T19:15:01.944Z,30.57
2022-12-14T19:20:18.123Z,30.20
2022-12-14T19:22:48.976Z,30.53
2022-12-14T19:25:17.649Z,31.33
2022-12-14T19:30:39.897Z,33.10
2022-12-14T19:33:08.100Z,34.83
2022-12-14T19:38:50.703Z,32.23
2022-12-14T19:41:23.451Z,30.93
2022-12-14T19:44:11.403Z,31.23
2022-12-14T19:46:43.949Z,33.63
2022-12-14T19:49:20.296Z,26.67
2022-12-14T19:51:57.698Z,30.97
2022-12-14T19:54:28.734Z,25.97
2022-12-14T19:56:57.527Z,29.47
2022-12-14T19:59:27.909Z,24.17
2022-12-14T20:01:56.038Z,30.17
2022-12-14T20:04:24.669Z,25.57
2022-12-14T20:06:54.203Z,25.53
2022-12-14T20:09:22.574Z,23.13
2022-12-14T20:11:53.429Z,26.13
2022-12-14T20:14:21.748Z,22.77
2022-12-14T20:16:54.673Z,26.40
2022-12-14T20:19:23.197Z,25.93
2022-12-14T20:21:51.227Z,26.63
2022-12-14T20:24:19.663Z,22.03
2022-12-14T20:26:49.321Z,23.67
2022-12-14T20:29:18.416Z,21.13
2022-12-14T20:31:46.540Z,22.37
2022-12-14T20:34:16.520Z,25.43
2022-12-14T20:36:46.238Z,27.30
2022-12-14T20:39:15.250Z,26.37
2022-12-14T20:41:43.580Z,22.93
2022-12-14T20:44:13.810Z,21.60
2022-12-14T20:46:47.273Z,21.40
2022-12-14T20:49:19.457Z,24.30
2022-12-14T20:51:51.512Z,19.97
2022-12-14T20:54:22.287Z,24.03
2022-12-14T20:56:50.933Z,22.70
2022-12-14T20:59:21.189Z,26.20
2022-12-14T21:01:55.331Z,23.90
2022-12-14T21:04:26.711Z,22.03
2022-12-14T21:06:58.331Z,24.83
2022-12-14T21:09:27.626Z,24.57
2022-12-14T21:12:13.587Z,24.97
2022-12-14T21:14:43.666Z,26.87
2022-12-14T21:17:13.058Z,22.97
2022-12-14T21:22:32.536Z,27.20
2022-12-14T21:25:04.421Z,24.33
2022-12-14T21:27:37.804Z,25.43
2022-12-14T21:30:08.545Z,26.97
2022-12-14T21:32:37.674Z,25.07
2022-12-14T21:35:08.435Z,29.83
2022-12-14T21:40:33.919Z,23.53
2022-12-14T21:43:01.493Z,26.97
2022-12-14T21:48:15.487Z,29.50
2022-12-14T21:50:45.949Z,25.43
2022-12-14T21:53:15.330Z,27.27
2022-12-14T21:56:13.277Z,26.60
2022-12-14T21:58:40.932Z,26.13
2022-12-14T22:01:10.014Z,32.37
2022-12-14T22:03:49.419Z,31.37
2022-12-14T22:06:19.893Z,29.37
2022-12-14T22:08:48.385Z,32.90
2022-12-14T22:11:16.642Z,30.20
2022-12-14T22:13:44.921Z,26.23
2022-12-14T22:16:14.085Z,30.83
2022-12-14T22:18:42.495Z,31.80
2022-12-14T22:21:10.759Z,32.37
2022-12-14T22:23:43.600Z,33.53
2022-12-14T22:26:12.602Z,30.43
2022-12-14T22:28:41.116Z,31.80
2022-12-14T22:31:09.262Z,31.83
2022-12-14T22:33:37.663Z,32.00
2022-12-14T22:36:06.348Z,33.67
2022-12-14T22:38:34.784Z,27.87
2022-12-14T22:41:04.983Z,31.70
2022-12-14T22:43:37.031Z,36.13
2022-12-14T22:46:06.500Z,30.00
2022-12-14T22:48:36.424Z,27.50
2022-12-14T22:51:14.007Z,26.47
2022-12-14T22:53:42.558Z,30.17
2022-12-14T22:56:16.448Z,30.30
2022-12-14T22:58:49.660Z,27.03
2022-12-14T23:01:19.542Z,26.67
2022-12-14T23:03:48.772Z,28.33
2022-12-14T23:06:19.141Z,29.50
2022-12-14T23:09:06.653Z,26.57
2022-12-14T23:11:54.426Z,26.87
2022-12-14T23:14:40.498Z,27.87
2022-12-14T23:17:26.687Z,24.60
2022-12-14T23:20:11.938Z,24.27
2022-12-14T23:22:57.490Z,29.70
2022-12-14T23:25:43.699Z,30.10
2022-12-14T23:28:31.402Z,30.20
2022-12-14T23:31:17.660Z,33.43
2022-12-14T23:34:03.100Z,34.13
2022-12-14T23:36:48.684Z,40.60
2022-12-14T23:39:34.464Z,35.90
2022-12-14T23:42:20.638Z,37.63
2022-12-14T23:45:08.115Z,35.87
2022-12-14T23:47:53.937Z,34.27
2022-12-14T23:50:39.752Z,36.60
2022-12-14T23:53:26.210Z,32.43
2022-12-14T23:56:12.798Z,34.67
2022-12-14T23:58:58.804Z,35.93
